Rhodes Point, Maryland
Current Conditions -  °F | °C
As of 11:22 AM on Wednesday 22 Oct 2014 (Local Time) from KNUI Reporting Station
Light Rain Light Rain  
Wind Chill: 55°   Ceiling: 1200
Heat Index: 55°   Visibility: 2.5mi
Dew Point: 51°   Wind: 7mph
Humidity: 86%   Direction: NA
Pressure: 29.85"   Gusts: 17mph
Location:  38.0048°N, 75.999°W
Report Text: KNUI 221522Z AUTO VRB06G15KT 2 1/2SM -RA BR SCT009 BKN012 OVC019 13/11 A2985 RMK AO2 VIS 1V5 RAB1459 P0007 T01280106
Loading
Personal Weather Stations






























Interactive Weather Map
Tropical Storm Tracking
New forecast layout! Learn more

10-Day Weather Forecast

Advertisements
Track Severe Weather on mobile